Archival Weather

Al Ahsa

Al Ahsa, Saudi Arabia (OEAH)

Report from: Friday, May 26, 2023 10:00 AM +03
Current time: Friday, July 19, 2024 5:28 AM +03

Current weather – Weather history – Daily summaries
Weather forecast

Temperature40.0°C (104.0°F)
Heat index37.9°C (100.2°F)
Dew point8.0°C (46.4°F)
Winds 5 kts (2.6 m/s, 5.8 mph) Southeast (140°)
Clouds Sky clear
Altimeter29.80 in.Hg (1009 mB)
Relative humidity15 %
Density altitude3,107 ft. (947 m)
Remarks Ceiling and visibility OK
No significant changes expected in the next two hours
Flight conditions Visual Meteorological Conditions
Raw dataOEAH 260700Z 14005KT CAVOK 40/08 Q1009 NOSIG
An error has occurred. This application may no longer respond until reloaded. Reload 🗙